Terminal Aerodrome Forecast
Issued by NWS

Home | Current Version | Previous Version | Text Only | Print | Product List | Glossary On
Versions: 1 2 3 4 5 6 7 8 9 10 11 12 13 14 15 16 17
000
FTAK31 PAJN 201100
TAFASI
TAF
PASI 201122Z 2012/2112 10010KT 6SM -RA BR SCT020 OVC040
     FM201400 12018G25KT 5SM RA BR BKN020 OVC030 WS020/15040KT
     FM201800 16012G17KT 4SM -RA BR BKN020 OVC030 WS020/18035KT
     FM202000 21011KT P6SM -SHRA SCT020 OVC030
     FM210100 26007KT P6SM VCSH SCT020 OVC045
     FM210900 11010KT 5SM RA BR SCT030 OVC050=

USA.gov is the U.S. government's official web portal to all federal, state and local government web resources and services.